createdAt,value
2022-08-28T00:03:18.097Z,46.45
2022-08-28T00:08:22.104Z,69.72
2022-08-28T00:13:28.003Z,46.97
2022-08-28T00:18:32.541Z,53.53
2022-08-28T00:23:43.110Z,49.78
2022-08-28T00:28:48.666Z,47.47
2022-08-28T00:33:52.704Z,46.63
2022-08-28T00:38:56.666Z,50.67
2022-08-28T00:44:12.267Z,64.68
2022-08-28T00:49:17.860Z,44.25
2022-08-28T00:54:22.871Z,42.95
2022-08-28T00:59:28.294Z,40.17
2022-08-28T01:04:33.565Z,41.10
2022-08-28T01:09:42.823Z,43.72
2022-08-28T01:14:50.407Z,42.25
2022-08-28T01:19:58.482Z,55.72
2022-08-28T01:25:05.446Z,42.10
2022-08-28T01:30:10.726Z,42.40
2022-08-28T01:35:18.063Z,41.60
2022-08-28T01:40:28.161Z,35.95
2022-08-28T01:45:32.237Z,29.75
2022-08-28T01:50:36.785Z,30.77
2022-08-28T01:55:42.851Z,37.22
2022-08-28T02:00:46.900Z,43.15
2022-08-28T02:05:51.259Z,33.33
2022-08-28T02:10:56.774Z,37.78
2022-08-28T02:16:00.964Z,38.20
2022-08-28T02:21:05.340Z,31.55
2022-08-28T02:26:11.379Z,41.00
2022-08-28T02:36:19.704Z,31.33
2022-08-28T02:41:26.818Z,32.30
2022-08-28T02:46:30.996Z,32.63
2022-08-28T02:51:35.351Z,28.33
2022-08-28T02:56:41.058Z,27.98
2022-08-28T03:01:45.173Z,33.72
2022-08-28T03:06:49.965Z,37.83
2022-08-28T03:11:55.470Z,38.10
2022-08-28T03:17:00.122Z,27.10
2022-08-28T03:22:04.303Z,27.33
2022-08-28T03:27:10.627Z,42.33
2022-08-28T03:32:14.596Z,34.47
2022-08-28T03:37:18.600Z,32.97
2022-08-28T03:42:24.111Z,40.90
2022-08-28T03:47:29.725Z,32.40
2022-08-28T03:52:33.852Z,31.27
2022-08-28T03:57:39.487Z,33.58
2022-08-28T04:02:44.351Z,32.05
2022-08-28T04:07:48.347Z,38.22
2022-08-28T04:12:53.908Z,32.55
2022-08-28T04:17:57.951Z,32.58
2022-08-28T04:23:04.213Z,25.17
2022-08-28T04:28:09.628Z,38.47
2022-08-28T04:33:13.647Z,39.92
2022-08-28T04:38:17.633Z,32.80
2022-08-28T04:43:23.036Z,39.92
2022-08-28T04:48:27.639Z,28.58
2022-08-28T04:53:32.935Z,43.13
2022-08-28T04:58:38.934Z,35.70
2022-08-28T05:03:43.195Z,37.85
2022-08-28T05:08:47.259Z,33.40
2022-08-28T05:13:53.220Z,30.25
2022-08-28T05:19:01.561Z,36.47
2022-08-28T05:24:05.687Z,38.95
2022-08-28T05:29:11.939Z,36.95
2022-08-28T05:34:16.479Z,36.47
2022-08-28T05:39:20.496Z,28.33
2022-08-28T05:44:25.908Z,37.42
2022-08-28T05:49:29.954Z,39.63
2022-08-28T05:54:34.213Z,38.63
2022-08-28T05:59:39.646Z,39.42
2022-08-28T06:04:43.647Z,33.17
2022-08-28T06:09:48.134Z,36.95
2022-08-28T06:14:53.550Z,39.85
2022-08-28T06:19:59.351Z,40.65
2022-08-28T06:25:07.415Z,28.50
2022-08-28T06:30:14.110Z,50.50
2022-08-28T06:35:18.202Z,36.38
2022-08-28T06:40:22.227Z,45.20
2022-08-28T06:45:27.571Z,42.13
2022-08-28T06:55:35.183Z,42.38
2022-08-28T07:00:42.191Z,43.40
2022-08-28T07:05:46.617Z,38.97
2022-08-28T07:10:50.658Z,45.87
2022-08-28T07:15:56.165Z,49.63
2022-08-28T07:21:01.694Z,46.40
2022-08-28T07:26:06.734Z,47.58
2022-08-28T07:36:29.373Z,39.90
2022-08-28T07:41:35.656Z,42.58
2022-08-28T07:46:42.008Z,36.00
2022-08-28T07:51:47.217Z,37.55
2022-08-28T07:56:51.712Z,41.33
2022-08-28T08:01:57.645Z,41.08
2022-08-28T08:07:03.496Z,35.88
2022-08-28T08:12:07.926Z,37.03
2022-08-28T08:17:15.851Z,38.95
2022-08-28T08:22:20.594Z,37.50
2022-08-28T08:27:25.420Z,25.27
2022-08-28T08:32:30.816Z,41.17
2022-08-28T08:37:34.938Z,38.60
2022-08-28T08:42:39.102Z,32.80
2022-08-28T08:47:48.975Z,35.90
2022-08-28T08:53:06.758Z,32.17
2022-08-28T08:58:14.193Z,27.75
2022-08-28T09:03:22.712Z,24.38
2022-08-28T09:08:33.866Z,27.13
2022-08-28T09:13:48.823Z,24.52
2022-08-28T09:18:57.091Z,27.83
2022-08-28T09:24:05.832Z,30.80
2022-08-28T09:29:17.185Z,20.38
2022-08-28T09:34:29.222Z,20.85
2022-08-28T09:39:35.794Z,27.27
2022-08-28T09:44:52.181Z,17.65
2022-08-28T09:49:57.576Z,19.67
2022-08-28T09:55:01.651Z,19.83
2022-08-28T10:00:06.235Z,20.10
2022-08-28T10:05:33.359Z,25.90
2022-08-28T10:10:42.429Z,18.90
2022-08-28T10:16:00.627Z,25.02
2022-08-28T10:21:13.907Z,18.00
2022-08-28T10:26:32.323Z,20.73
2022-08-28T10:31:44.696Z,18.25
2022-08-28T10:36:56.356Z,11.70
2022-08-28T10:42:03.425Z,22.13
2022-08-28T10:47:07.990Z,17.58
2022-08-28T10:52:16.620Z,18.85
2022-08-28T10:57:31.107Z,18.20
2022-08-28T11:02:35.618Z,21.13
2022-08-28T11:07:46.164Z,12.90
2022-08-28T11:12:51.553Z,11.45
2022-08-28T11:17:56.187Z,14.73
2022-08-28T11:23:09.170Z,12.70
2022-08-28T11:28:18.844Z,21.13
2022-08-28T11:33:40.271Z,18.90
2022-08-28T11:39:07.440Z,21.88
2022-08-28T11:44:42.506Z,16.95
2022-08-28T11:49:46.850Z,22.17
2022-08-28T11:54:57.176Z,17.02
2022-08-28T12:00:09.785Z,20.85
2022-08-28T12:05:38.087Z,20.90
2022-08-28T12:10:57.116Z,16.65
2022-08-28T12:16:06.715Z,15.15
2022-08-28T12:21:16.247Z,17.58
2022-08-28T12:26:25.755Z,19.10
2022-08-28T12:32:13.111Z,12.77
2022-08-28T12:37:31.570Z,12.63
2022-08-28T12:42:54.552Z,20.00
2022-08-28T12:48:01.561Z,19.58
2022-08-28T12:53:08.158Z,16.38
2022-08-28T12:58:15.114Z,15.45
2022-08-28T13:03:19.330Z,21.80
2022-08-28T13:08:24.070Z,15.18
2022-08-28T13:13:37.432Z,17.23
2022-08-28T13:24:44.741Z,17.08
2022-08-28T13:30:27.261Z,17.80
2022-08-28T13:35:37.681Z,18.67
2022-08-28T13:40:57.374Z,12.13
2022-08-28T13:46:03.206Z,22.00
2022-08-28T13:51:10.767Z,22.27
2022-08-28T13:56:15.088Z,19.05
2022-08-28T14:01:26.639Z,18.85
2022-08-28T14:06:44.181Z,16.30
2022-08-28T14:11:49.349Z,15.63
2022-08-28T14:16:55.815Z,13.88
2022-08-28T14:21:59.903Z,8.75
2022-08-28T14:27:03.915Z,18.00
2022-08-28T14:32:09.449Z,16.38
2022-08-28T14:37:13.866Z,16.08
2022-08-28T14:42:20.564Z,19.33
2022-08-28T14:47:26.118Z,13.73
2022-08-28T14:52:30.200Z,14.73
2022-08-28T14:57:34.324Z,14.52
2022-08-28T15:07:43.311Z,15.13
2022-08-28T15:12:47.408Z,15.80
2022-08-28T15:17:52.819Z,15.30
2022-08-28T15:22:56.914Z,19.48
2022-08-28T15:28:00.902Z,13.05
2022-08-28T15:33:06.720Z,18.35
2022-08-28T15:38:10.751Z,17.48
2022-08-28T15:43:14.950Z,17.80
2022-08-28T15:53:24.144Z,22.50
2022-08-28T15:58:28.231Z,16.23
2022-08-28T16:03:33.958Z,13.45
2022-08-28T16:08:37.936Z,22.17
2022-08-28T16:13:41.983Z,21.05
2022-08-28T16:18:47.466Z,15.85
2022-08-28T16:23:51.933Z,12.68
2022-08-28T16:28:55.924Z,24.35
2022-08-28T16:34:02.965Z,21.23
2022-08-28T16:39:10.999Z,19.10
2022-08-28T16:44:14.973Z,13.48
2022-08-28T16:49:20.801Z,23.37
2022-08-28T16:54:24.988Z,20.90
2022-08-28T16:59:29.024Z,20.40
2022-08-28T17:04:35.631Z,24.73
2022-08-28T17:09:39.680Z,23.67
2022-08-28T17:14:43.863Z,21.23
2022-08-28T17:19:49.287Z,19.17
2022-08-28T17:24:53.306Z,21.65
2022-08-28T17:29:57.931Z,18.23
2022-08-28T17:35:03.466Z,21.77
2022-08-28T17:40:09.426Z,21.95
2022-08-28T17:45:13.878Z,18.13
2022-08-28T17:50:19.438Z,21.73
2022-08-28T17:55:23.409Z,14.75
2022-08-28T18:00:27.413Z,42.20
2022-08-28T18:05:32.851Z,32.70
2022-08-28T18:10:37.015Z,30.00
2022-08-28T18:15:41.045Z,26.13
2022-08-28T18:20:48.839Z,25.92
2022-08-28T18:25:53.079Z,33.60
2022-08-28T18:30:57.093Z,24.33
2022-08-28T18:36:02.541Z,30.70
2022-08-28T18:41:08.383Z,34.35
2022-08-28T18:46:14.382Z,32.28
2022-08-28T18:51:21.600Z,27.25
2022-08-28T18:56:28.028Z,24.77
2022-08-28T19:01:35.981Z,17.77
2022-08-28T19:06:42.257Z,27.52
2022-08-28T19:11:48.427Z,28.65
2022-08-28T19:16:52.378Z,36.72
2022-08-28T19:21:57.788Z,27.67
2022-08-28T19:27:02.846Z,37.28
2022-08-28T19:32:07.808Z,30.67
2022-08-28T19:37:14.736Z,34.90
2022-08-28T19:42:18.755Z,31.88
2022-08-28T19:47:22.886Z,34.47
2022-08-28T19:52:28.471Z,30.45
2022-08-28T19:57:32.650Z,31.40
2022-08-28T20:02:37.109Z,30.25
2022-08-28T20:07:42.964Z,32.05
2022-08-28T20:17:52.965Z,42.13
2022-08-28T20:22:58.376Z,38.10
2022-08-28T20:28:03.772Z,32.63
2022-08-28T20:33:07.847Z,31.95
2022-08-28T20:38:13.871Z,28.65
2022-08-28T20:43:18.175Z,29.85
2022-08-28T20:48:22.194Z,41.17
2022-08-28T20:53:37.060Z,30.52
2022-08-28T20:58:41.614Z,42.15
2022-08-28T21:03:45.802Z,52.70
2022-08-28T21:08:51.227Z,37.45
2022-08-28T21:13:55.526Z,31.77
2022-08-28T21:19:16.193Z,34.70
2022-08-28T21:24:22.083Z,26.42
2022-08-28T21:29:26.144Z,22.23
2022-08-28T21:34:30.209Z,25.98
2022-08-28T21:39:36.252Z,21.23
2022-08-28T21:44:40.493Z,25.35
2022-08-28T21:49:53.791Z,19.73
2022-08-28T22:00:04.403Z,22.67
2022-08-28T22:05:10.938Z,17.55
2022-08-28T22:10:16.360Z,20.33
2022-08-28T22:15:20.580Z,26.77
2022-08-28T22:20:24.645Z,22.42
2022-08-28T22:25:30.118Z,29.55
2022-08-28T22:30:34.410Z,20.77
2022-08-28T22:35:39.078Z,19.63
2022-08-28T22:40:44.561Z,20.75
2022-08-28T22:50:52.854Z,25.70
2022-08-28T22:56:00.811Z,18.88
2022-08-28T23:01:09.770Z,14.50
2022-08-28T23:06:14.300Z,20.25
2022-08-28T23:11:19.706Z,18.25
2022-08-28T23:16:24.879Z,16.95
2022-08-28T23:21:29.532Z,14.55
2022-08-28T23:26:34.999Z,15.85
2022-08-28T23:31:39.594Z,17.33
2022-08-28T23:36:43.680Z,13.95
2022-08-28T23:41:49.430Z,15.48
2022-08-28T23:46:53.890Z,18.10
2022-08-28T23:51:57.824Z,14.52
